createdAt,value
2022-08-22T00:03:50.115Z,10.80
2022-08-22T00:04:21.149Z,10.80
2022-08-22T00:04:58.348Z,10.80
2022-08-22T00:05:23.240Z,10.80
2022-08-22T00:05:53.537Z,10.80
2022-08-22T00:06:24.306Z,10.80
2022-08-22T00:06:55.204Z,10.80
2022-08-22T00:07:26.352Z,10.80
2022-08-22T00:07:58.452Z,10.80
2022-08-22T00:10:10.860Z,10.80
2022-08-22T00:11:29.088Z,10.74
2022-08-22T00:11:35.007Z,10.74
2022-08-22T00:12:07.749Z,10.74
2022-08-22T00:12:37.478Z,10.74
2022-08-22T00:13:10.155Z,10.74
2022-08-22T00:13:38.777Z,10.90
2022-08-22T00:14:09.904Z,10.74
2022-08-22T00:14:40.407Z,10.74
2022-08-22T00:15:42.433Z,10.90
2022-08-22T00:15:56.681Z,10.90
2022-08-22T00:16:14.220Z,10.90
2022-08-22T00:16:46.040Z,10.90
2022-08-22T00:17:25.693Z,10.90
2022-08-22T00:17:49.312Z,10.90
2022-08-22T00:18:17.219Z,10.80
2022-08-22T00:18:48.577Z,10.80
2022-08-22T00:19:19.580Z,10.80
2022-08-22T00:19:50.377Z,10.80
2022-08-22T00:20:28.105Z,10.80
2022-08-22T00:20:56.054Z,10.80
2022-08-22T00:21:25.763Z,10.80
2022-08-22T00:21:57.700Z,10.80
2022-08-22T00:22:26.135Z,10.80
2022-08-22T00:22:57.376Z,10.80
2022-08-22T00:23:27.625Z,10.70
2022-08-22T00:24:01.225Z,10.70
2022-08-22T00:24:30.366Z,10.70
2022-08-22T00:25:01.886Z,10.70
2022-08-22T00:25:33.127Z,10.70
2022-08-22T00:26:05.103Z,10.77
2022-08-22T00:26:35.381Z,10.77
2022-08-22T00:27:11.113Z,10.77
2022-08-22T00:27:38.011Z,10.77
2022-08-22T00:28:09.008Z,10.77
2022-08-22T00:28:38.583Z,10.67
2022-08-22T00:29:09.182Z,10.67
2022-08-22T00:29:39.980Z,10.67
2022-08-22T00:30:14.400Z,10.67
2022-08-22T00:30:44.728Z,10.67
2022-08-22T00:31:16.599Z,10.67
2022-08-22T00:31:46.638Z,10.67
2022-08-22T00:32:16.607Z,10.67
2022-08-22T00:32:49.620Z,10.67
2022-08-22T00:33:30.025Z,10.67
2022-08-22T00:33:49.403Z,10.57
2022-08-22T00:34:19.720Z,10.57
2022-08-22T00:34:50.405Z,10.57
2022-08-22T00:35:24.415Z,10.57
2022-08-22T00:35:52.376Z,10.57
2022-08-22T00:36:28.277Z,10.57
2022-08-22T00:36:53.805Z,10.57
2022-08-22T00:37:25.868Z,10.57
2022-08-22T00:37:58.404Z,10.48
2022-08-22T00:38:28.627Z,10.48
2022-08-22T00:39:01.275Z,10.48
2022-08-22T00:39:31.568Z,10.48
2022-08-22T00:40:04.139Z,10.48
2022-08-22T00:40:38.189Z,10.48
2022-08-22T00:41:04.816Z,10.48
2022-08-22T00:41:32.955Z,10.48
2022-08-22T00:42:06.017Z,10.48
2022-08-22T00:42:34.868Z,10.65
2022-08-22T00:43:07.286Z,10.48
2022-08-22T00:43:38.761Z,10.48
2022-08-22T00:44:08.901Z,10.48
2022-08-22T00:44:40.680Z,10.48
2022-08-22T00:45:29.520Z,10.48
2022-08-22T00:45:41.058Z,10.48
2022-08-22T00:46:11.909Z,10.48
2022-08-22T00:46:42.473Z,10.48
2022-08-22T00:47:13.768Z,10.48
2022-08-22T00:47:44.596Z,10.38
2022-08-22T00:48:17.281Z,10.38
2022-08-22T00:48:47.825Z,10.55
2022-08-22T00:49:18.727Z,10.55
2022-08-22T00:49:51.475Z,10.55
2022-08-22T00:50:20.125Z,10.55
2022-08-22T00:50:50.707Z,10.55
2022-08-22T00:51:21.740Z,10.55
2022-08-22T00:52:23.572Z,10.55
2022-08-22T00:52:55.150Z,10.55
2022-08-22T00:53:26.330Z,10.45
2022-08-22T00:53:57.674Z,10.45
2022-08-22T00:54:29.368Z,10.45
2022-08-22T00:55:01.262Z,10.45
2022-08-22T00:55:34.833Z,10.45
2022-08-22T00:56:01.194Z,10.45
2022-08-22T00:56:32.049Z,10.45
2022-08-22T00:57:05.716Z,10.45
2022-08-22T00:57:33.614Z,10.45
2022-08-22T00:58:04.735Z,10.45
2022-08-22T00:58:38.794Z,10.45
2022-08-22T00:59:10.593Z,10.45
2022-08-22T00:59:39.124Z,10.45
2022-08-22T01:00:11.759Z,10.45
2022-08-22T01:00:40.719Z,10.45
2022-08-22T01:01:10.617Z,10.45
2022-08-22T01:01:44.527Z,10.45
2022-08-22T01:02:12.852Z,10.35
2022-08-22T01:03:01.282Z,10.35
2022-08-22T01:03:14.594Z,10.35
2022-08-22T01:03:47.312Z,10.35
2022-08-22T01:04:17.822Z,10.35
2022-08-22T01:04:50.331Z,10.51
2022-08-22T01:05:20.063Z,10.51
2022-08-22T01:05:50.493Z,10.51
2022-08-22T01:06:20.994Z,10.51
2022-08-22T01:06:54.834Z,10.51
2022-08-22T01:07:22.904Z,10.51
2022-08-22T01:07:53.716Z,10.51
2022-08-22T01:08:25.084Z,10.51
2022-08-22T01:08:56.294Z,10.41
2022-08-22T01:09:31.134Z,10.41
2022-08-22T01:09:59.944Z,10.25
2022-08-22T01:10:33.860Z,10.41
2022-08-22T01:11:16.936Z,10.25
2022-08-22T01:11:31.149Z,10.25
2022-08-22T01:12:02.652Z,10.25
2022-08-22T01:12:33.285Z,10.25
2022-08-22T01:13:07.299Z,10.25
2022-08-22T01:13:35.695Z,10.25
2022-08-22T01:14:06.117Z,10.25
2022-08-22T01:14:37.374Z,10.25
2022-08-22T01:15:10.297Z,10.25
2022-08-22T01:15:39.858Z,10.25
2022-08-22T01:16:10.844Z,10.25
2022-08-22T01:17:01.154Z,10.25
2022-08-22T01:17:11.669Z,10.25
2022-08-22T01:17:42.933Z,10.25
2022-08-22T01:18:14.090Z,10.25
2022-08-22T01:19:02.258Z,10.25
2022-08-22T01:19:16.916Z,10.15
2022-08-22T01:19:50.540Z,10.15
2022-08-22T01:20:19.358Z,10.15
2022-08-22T01:21:05.966Z,10.15
2022-08-22T01:21:24.267Z,10.15
2022-08-22T01:21:51.454Z,10.15
2022-08-22T01:22:24.855Z,10.31
2022-08-22T01:22:52.602Z,10.31
2022-08-22T01:23:24.308Z,10.31
2022-08-22T01:23:58.391Z,10.31
2022-08-22T01:24:26.557Z,10.31
2022-08-22T01:24:56.948Z,10.31
2022-08-22T01:25:31.516Z,10.31
2022-08-22T01:26:01.214Z,10.31
2022-08-22T01:26:33.421Z,10.31
2022-08-22T01:27:01.861Z,10.31
2022-08-22T01:27:31.884Z,10.31
2022-08-22T01:28:03.020Z,10.31
2022-08-22T01:28:34.735Z,10.31
2022-08-22T01:29:05.407Z,10.21
2022-08-22T01:29:36.084Z,10.21
2022-08-22T01:30:09.523Z,10.21
2022-08-22T01:30:38.317Z,10.21
2022-08-22T01:31:10.109Z,10.11
2022-08-22T01:31:40.705Z,10.11
2022-08-22T01:32:12.008Z,10.11
2022-08-22T01:32:42.327Z,10.11
2022-08-22T01:33:13.174Z,10.11
2022-08-22T01:33:43.932Z,10.11
2022-08-22T01:34:14.980Z,10.11
2022-08-22T01:34:46.152Z,10.11
2022-08-22T01:35:17.118Z,10.11
2022-08-22T01:35:48.241Z,10.11
2022-08-22T01:36:19.663Z,10.11
2022-08-22T01:36:53.246Z,10.11
2022-08-22T01:37:21.235Z,10.11
2022-08-22T01:37:54.063Z,10.11
2022-08-22T01:38:22.541Z,10.11
2022-08-22T01:39:11.342Z,10.11
2022-08-22T01:39:24.706Z,10.11
2022-08-22T01:39:57.174Z,10.11
2022-08-22T01:40:27.115Z,10.11
2022-08-22T01:41:01.273Z,10.11
2022-08-22T01:41:30.417Z,10.11
2022-08-22T01:42:02.345Z,10.11
2022-08-22T01:42:31.690Z,10.11
2022-08-22T01:43:05.062Z,10.27
2022-08-22T01:43:59.947Z,10.27
2022-08-22T01:44:07.002Z,10.27
2022-08-22T01:44:35.769Z,10.27
2022-08-22T01:45:08.401Z,10.17
2022-08-22T01:45:37.120Z,10.17
2022-08-22T01:46:09.710Z,10.17
2022-08-22T01:46:39.758Z,10.17
2022-08-22T01:47:11.469Z,10.17
2022-08-22T01:47:42.161Z,10.17
2022-08-22T01:48:13.693Z,10.17
2022-08-22T01:48:42.770Z,10.17
2022-08-22T01:49:14.249Z,10.07
2022-08-22T01:49:44.734Z,10.07
2022-08-22T01:50:16.641Z,10.07
2022-08-22T01:50:46.871Z,10.07
2022-08-22T01:51:18.107Z,10.07
2022-08-22T01:51:52.583Z,10.07
2022-08-22T01:52:20.576Z,9.97
2022-08-22T01:52:51.838Z,9.97
2022-08-22T01:53:22.267Z,9.97
2022-08-22T01:54:11.842Z,9.97
2022-08-22T01:54:24.109Z,9.97
2022-08-22T01:54:54.670Z,9.97
2022-08-22T01:55:28.372Z,9.97
2022-08-22T01:55:56.870Z,9.87
2022-08-22T01:56:28.192Z,9.87
2022-08-22T01:57:01.214Z,9.87
2022-08-22T01:57:32.119Z,9.87
2022-08-22T01:58:03.044Z,9.87
2022-08-22T01:58:32.517Z,9.87
2022-08-22T01:59:03.233Z,9.87
2022-08-22T01:59:34.247Z,9.87
2022-08-22T02:00:07.488Z,9.87
2022-08-22T02:00:36.686Z,9.87
2022-08-22T02:01:11.305Z,9.77
2022-08-22T02:01:38.082Z,9.77
2022-08-22T02:02:10.144Z,9.77
2022-08-22T02:02:41.515Z,9.94
2022-08-22T02:03:12.251Z,9.94
2022-08-22T02:03:42.799Z,9.94
2022-08-22T02:04:13.177Z,9.94
2022-08-22T02:04:44.553Z,9.94
2022-08-22T02:05:15.525Z,9.94
2022-08-22T02:05:46.797Z,9.94
2022-08-22T02:06:16.933Z,9.94
2022-08-22T02:06:51.870Z,9.94
2022-08-22T02:07:19.723Z,10.10
2022-08-22T02:07:51.501Z,10.10
2022-08-22T02:08:21.994Z,10.10
2022-08-22T02:08:52.639Z,10.10
2022-08-22T02:09:53.899Z,10.10
2022-08-22T02:10:27.950Z,10.10
2022-08-22T02:10:56.263Z,10.10
2022-08-22T02:11:27.046Z,10.10
2022-08-22T02:11:58.066Z,10.10
2022-08-22T02:12:46.014Z,10.10
2022-08-22T02:13:01.277Z,10.10
2022-08-22T02:13:32.104Z,10.10
2022-08-22T02:14:05.342Z,10.10
2022-08-22T02:14:33.234Z,10.10
2022-08-22T02:15:05.427Z,10.10
2022-08-22T02:15:34.909Z,10.10
2022-08-22T02:16:06.100Z,10.25
2022-08-22T02:16:38.551Z,10.25
2022-08-22T02:17:08.650Z,10.25
2022-08-22T02:17:41.299Z,10.25
2022-08-22T02:18:13.039Z,10.25
2022-08-22T02:18:43.018Z,10.25
2022-08-22T02:19:13.638Z,10.35
2022-08-22T02:19:49.032Z,10.35
2022-08-22T02:20:14.921Z,10.35
2022-08-22T02:20:44.950Z,10.35
2022-08-22T02:21:16.524Z,10.35
2022-08-22T02:21:47.267Z,10.35
2022-08-22T02:22:17.737Z,10.35
2022-08-22T02:22:49.186Z,10.35
2022-08-22T02:23:23.191Z,10.35
2022-08-22T02:23:52.119Z,10.35
2022-08-22T02:24:23.035Z,10.35
2022-08-22T02:24:52.997Z,10.35
2022-08-22T02:25:24.345Z,10.35
2022-08-22T02:25:58.203Z,10.35
2022-08-22T02:26:26.825Z,10.25
2022-08-22T02:26:57.373Z,10.25
2022-08-22T02:27:29.888Z,10.25
2022-08-22T02:27:59.384Z,10.25
2022-08-22T02:28:33.239Z,10.10
2022-08-22T02:29:02.480Z,10.10
2022-08-22T02:29:33.070Z,10.10
2022-08-22T02:30:07.098Z,10.10
2022-08-22T02:30:34.128Z,10.10
2022-08-22T02:31:05.696Z,10.10
2022-08-22T02:31:43.331Z,10.10
2022-08-22T02:32:07.249Z,10.10
2022-08-22T02:32:39.009Z,10.10
2022-08-22T02:33:09.043Z,10.10
2022-08-22T02:33:41.263Z,10.10
2022-08-22T02:34:13.447Z,10.10
2022-08-22T02:34:43.073Z,10.10
2022-08-22T02:35:14.390Z,10.10
2022-08-22T02:35:44.027Z,10.10
2022-08-22T02:36:16.355Z,10.10
2022-08-22T02:36:45.874Z,10.10
2022-08-22T02:37:17.056Z,10.10
2022-08-22T02:37:48.165Z,10.10
2022-08-22T02:38:19.078Z,10.10
2022-08-22T02:38:50.731Z,10.10
2022-08-22T02:39:22.343Z,10.10
2022-08-22T02:39:53.363Z,10.10
2022-08-22T02:40:25.641Z,10.10
2022-08-22T02:40:54.012Z,10.10
2022-08-22T02:41:25.019Z,10.10
2022-08-22T02:41:56.022Z,10.00
2022-08-22T02:42:26.923Z,10.00
2022-08-22T02:42:58.929Z,10.00
2022-08-22T02:43:32.696Z,10.00
2022-08-22T02:44:01.206Z,10.00
2022-08-22T02:44:31.682Z,10.00
2022-08-22T02:45:05.422Z,10.00
2022-08-22T02:45:33.471Z,10.00
2022-08-22T02:46:04.563Z,10.00
2022-08-22T02:46:35.616Z,10.00
2022-08-22T02:47:06.590Z,10.15
2022-08-22T02:47:37.237Z,10.15
2022-08-22T02:48:09.391Z,10.25
2022-08-22T02:48:39.088Z,10.25
2022-08-22T02:49:10.628Z,10.25
2022-08-22T02:49:44.529Z,10.25
2022-08-22T02:50:19.143Z,10.25
2022-08-22T02:50:43.917Z,10.25
2022-08-22T02:51:14.627Z,10.25
2022-08-22T02:51:45.098Z,10.25
2022-08-22T02:52:16.867Z,10.10
2022-08-22T02:52:50.537Z,10.10
2022-08-22T02:53:18.930Z,10.10
2022-08-22T02:53:49.236Z,10.10
2022-08-22T02:54:20.346Z,10.10
2022-08-22T02:54:54.102Z,10.10
2022-08-22T02:55:24.123Z,10.10
2022-08-22T02:55:54.175Z,10.10
2022-08-22T02:56:26.241Z,10.10
2022-08-22T02:56:56.027Z,10.00
2022-08-22T02:57:25.944Z,10.00
2022-08-22T02:57:59.602Z,10.00
2022-08-22T02:58:28.711Z,10.00
2022-08-22T02:59:01.682Z,10.00
2022-08-22T02:59:30.774Z,10.00
2022-08-22T03:00:06.510Z,10.00
2022-08-22T03:01:04.674Z,10.00
2022-08-22T03:01:34.855Z,10.00
2022-08-22T03:02:05.844Z,10.00
2022-08-22T03:02:36.556Z,10.00
2022-08-22T03:03:07.527Z,10.00
2022-08-22T03:03:43.629Z,10.00
2022-08-22T03:04:09.530Z,10.00
2022-08-22T03:04:40.262Z,10.00
2022-08-22T03:05:29.390Z,10.00
2022-08-22T03:05:43.969Z,10.00
2022-08-22T03:06:15.443Z,10.00
2022-08-22T03:06:45.844Z,10.00
2022-08-22T03:07:17.335Z,10.00
2022-08-22T03:07:47.608Z,10.00
2022-08-22T03:08:17.440Z,10.00
2022-08-22T03:08:54.812Z,10.00
2022-08-22T03:09:19.498Z,10.00
2022-08-22T03:09:50.179Z,10.00
2022-08-22T03:10:21.701Z,10.00
2022-08-22T03:10:53.522Z,10.00
2022-08-22T03:11:24.252Z,10.00
2022-08-22T03:11:57.206Z,9.90
2022-08-22T03:12:25.439Z,9.90
2022-08-22T03:12:57.529Z,9.90
2022-08-22T03:13:27.137Z,9.90
2022-08-22T03:13:58.340Z,9.90
2022-08-22T03:14:29.519Z,9.90
2022-08-22T03:15:01.330Z,9.90
2022-08-22T03:15:31.269Z,9.90
2022-08-22T03:16:05.201Z,9.90
2022-08-22T03:16:34.859Z,9.90
2022-08-22T03:17:05.770Z,9.90
2022-08-22T03:17:35.245Z,9.90
2022-08-22T03:18:07.026Z,9.90
2022-08-22T03:18:37.061Z,9.90
2022-08-22T03:19:08.487Z,9.90
2022-08-22T03:19:40.458Z,9.90
2022-08-22T03:20:10.293Z,9.90
2022-08-22T03:20:41.499Z,9.90
2022-08-22T03:21:12.409Z,9.90
2022-08-22T03:21:45.469Z,9.90
2022-08-22T03:22:15.706Z,9.90
2022-08-22T03:22:45.851Z,9.90
2022-08-22T03:23:16.439Z,9.90
2022-08-22T03:23:49.646Z,9.90
2022-08-22T03:24:19.598Z,9.90
2022-08-22T03:24:50.023Z,9.90
2022-08-22T03:25:21.035Z,9.90
2022-08-22T03:25:51.960Z,9.90
2022-08-22T03:26:40.486Z,9.90
2022-08-22T03:26:54.492Z,9.90
2022-08-22T03:27:32.423Z,9.90
2022-08-22T03:27:55.649Z,9.90
2022-08-22T03:28:26.463Z,9.90
2022-08-22T03:28:59.524Z,9.90
2022-08-22T03:29:31.136Z,9.90
2022-08-22T03:30:00.454Z,9.90
2022-08-22T03:30:31.047Z,9.90
2022-08-22T03:31:02.042Z,9.90
2022-08-22T03:31:34.026Z,9.90
2022-08-22T03:32:05.891Z,9.90
2022-08-22T03:32:36.638Z,9.90
2022-08-22T03:33:08.478Z,9.90
2022-08-22T03:33:36.559Z,9.90
2022-08-22T03:34:07.747Z,9.90
2022-08-22T03:35:14.092Z,9.90
2022-08-22T03:35:26.540Z,9.90
2022-08-22T03:35:40.463Z,9.90
2022-08-22T03:36:11.459Z,9.90
2022-08-22T03:36:42.685Z,9.90
2022-08-22T03:37:14.507Z,9.90
2022-08-22T03:37:45.964Z,9.90
2022-08-22T03:38:23.937Z,9.90
2022-08-22T03:38:46.670Z,9.90
2022-08-22T03:39:17.711Z,9.90
2022-08-22T03:39:49.291Z,9.90
2022-08-22T03:40:20.092Z,9.90
2022-08-22T03:40:50.542Z,9.90
2022-08-22T03:41:23.488Z,9.90
2022-08-22T03:41:52.332Z,9.90
2022-08-22T03:42:24.785Z,9.80
2022-08-22T03:42:55.873Z,9.80
2022-08-22T03:43:26.041Z,9.80
2022-08-22T03:43:56.743Z,9.90
2022-08-22T03:44:27.610Z,9.90
2022-08-22T03:44:59.852Z,9.90
2022-08-22T03:45:30.007Z,9.90
2022-08-22T03:46:01.218Z,9.90
2022-08-22T03:46:31.758Z,9.90
2022-08-22T03:47:02.405Z,9.90
2022-08-22T03:47:40.806Z,9.90
2022-08-22T03:48:07.075Z,9.90
2022-08-22T03:48:36.918Z,9.90
2022-08-22T03:49:06.565Z,9.90
2022-08-22T03:49:37.673Z,9.90
2022-08-22T03:50:09.519Z,9.90
2022-08-22T03:50:39.484Z,9.90
2022-08-22T03:51:11.576Z,9.80
2022-08-22T03:51:42.575Z,9.80
2022-08-22T03:52:12.793Z,9.80
2022-08-22T03:52:44.900Z,9.80
2022-08-22T03:53:18.942Z,9.80
2022-08-22T03:53:47.701Z,9.96
2022-08-22T03:54:16.987Z,9.96
2022-08-22T03:54:52.593Z,9.96
2022-08-22T03:55:18.547Z,9.96
2022-08-22T03:55:49.341Z,9.96
2022-08-22T03:56:20.670Z,9.96
2022-08-22T03:56:57.510Z,9.96
2022-08-22T03:57:22.112Z,9.96
2022-08-22T03:57:53.894Z,9.96
2022-08-22T03:58:28.084Z,9.96
2022-08-22T03:58:57.284Z,9.96
2022-08-22T03:59:27.629Z,9.96
2022-08-22T03:59:58.156Z,9.96
2022-08-22T04:00:30.995Z,9.96
2022-08-22T04:00:59.974Z,9.96
2022-08-22T04:01:31.822Z,9.96
2022-08-22T04:02:02.570Z,9.96
2022-08-22T04:02:43.195Z,9.96
2022-08-22T04:03:03.490Z,9.96
2022-08-22T04:03:35.334Z,9.96
2022-08-22T04:04:06.423Z,9.96
2022-08-22T04:04:43.028Z,9.96
2022-08-22T04:05:07.760Z,9.96
2022-08-22T04:05:42.854Z,9.96
2022-08-22T04:06:13.046Z,9.96
2022-08-22T04:06:41.902Z,9.96
2022-08-22T04:07:43.999Z,9.96
2022-08-22T04:08:13.888Z,9.96
2022-08-22T04:08:44.948Z,9.96
2022-08-22T04:09:15.885Z,9.96
2022-08-22T04:09:47.595Z,9.96
2022-08-22T04:10:17.964Z,9.96
2022-08-22T04:10:49.891Z,9.96
2022-08-22T04:11:20.944Z,9.96
2022-08-22T04:11:51.555Z,9.96
2022-08-22T04:12:22.280Z,9.96
2022-08-22T04:12:54.842Z,9.96
2022-08-22T04:13:24.593Z,9.96
2022-08-22T04:13:54.481Z,9.96
2022-08-22T04:14:26.453Z,9.96
2022-08-22T04:14:56.416Z,9.96
2022-08-22T04:15:28.007Z,9.96
2022-08-22T04:15:59.205Z,9.96
2022-08-22T04:16:32.962Z,9.96
2022-08-22T04:17:03.168Z,9.96
2022-08-22T04:17:33.152Z,9.96
2022-08-22T04:18:02.849Z,9.96
2022-08-22T04:18:33.643Z,9.96
2022-08-22T04:19:05.009Z,9.96
2022-08-22T04:19:35.984Z,9.96
2022-08-22T04:20:07.907Z,9.96
2022-08-22T04:20:37.583Z,9.96
2022-08-22T04:21:09.507Z,9.96
2022-08-22T04:21:40.237Z,9.96
2022-08-22T04:22:10.724Z,9.96
2022-08-22T04:22:42.203Z,9.96
2022-08-22T04:23:13.088Z,9.96
2022-08-22T04:23:43.966Z,9.96
2022-08-22T04:24:14.419Z,9.96
2022-08-22T04:24:51.930Z,9.96
2022-08-22T04:25:16.708Z,9.96
2022-08-22T04:25:47.560Z,9.96
2022-08-22T04:26:19.418Z,9.96
2022-08-22T04:26:50.252Z,9.96
2022-08-22T04:27:20.642Z,9.96
2022-08-22T04:28:23.572Z,9.96
2022-08-22T04:28:54.480Z,9.96
2022-08-22T04:29:24.949Z,9.96
2022-08-22T04:29:56.380Z,9.96
2022-08-22T04:30:26.768Z,9.96
2022-08-22T04:30:57.558Z,9.96
2022-08-22T04:31:31.407Z,9.96
2022-08-22T04:32:01.272Z,9.96
2022-08-22T04:32:31.442Z,9.96
2022-08-22T04:33:02.038Z,9.96
2022-08-22T04:33:32.717Z,10.05
2022-08-22T04:34:03.937Z,10.05
2022-08-22T04:34:36.507Z,10.05
2022-08-22T04:35:06.612Z,10.05
2022-08-22T04:35:36.664Z,10.05
2022-08-22T04:36:09.799Z,10.05
2022-08-22T04:36:41.358Z,10.05
2022-08-22T04:37:09.751Z,10.05
2022-08-22T04:37:40.576Z,10.05
2022-08-22T04:38:11.833Z,10.05
2022-08-22T04:38:42.646Z,10.05
2022-08-22T04:39:14.049Z,10.05
2022-08-22T04:39:46.965Z,10.05
2022-08-22T04:40:16.207Z,10.05
2022-08-22T04:40:48.950Z,10.05
2022-08-22T04:41:35.030Z,10.05
2022-08-22T04:41:50.324Z,10.05
2022-08-22T04:42:32.632Z,10.05
2022-08-22T04:42:50.795Z,10.05
2022-08-22T04:43:21.418Z,10.05
2022-08-22T04:43:55.811Z,10.05
2022-08-22T04:44:23.406Z,10.05
2022-08-22T04:44:54.874Z,10.05
2022-08-22T04:45:26.121Z,10.05
2022-08-22T04:45:56.628Z,10.05
2022-08-22T04:46:33.724Z,10.05
2022-08-22T04:46:59.921Z,10.20
2022-08-22T04:47:30.063Z,10.20
2022-08-22T04:48:01.372Z,10.20
2022-08-22T04:48:31.550Z,10.15
2022-08-22T04:49:20.410Z,10.15
2022-08-22T04:49:33.684Z,10.30
2022-08-22T04:50:06.339Z,10.15
2022-08-22T04:50:38.012Z,10.15
2022-08-22T04:51:10.265Z,10.15
2022-08-22T04:51:37.438Z,10.25
2022-08-22T04:52:09.557Z,10.25
2022-08-22T04:52:40.354Z,10.35
2022-08-22T04:53:13.802Z,10.35
2022-08-22T04:53:41.723Z,10.35
2022-08-22T04:54:21.995Z,10.35
2022-08-22T04:54:44.814Z,10.35
2022-08-22T04:55:18.007Z,10.35
2022-08-22T04:55:45.882Z,10.35
2022-08-22T04:56:22.194Z,10.35
2022-08-22T04:56:50.343Z,10.35
2022-08-22T04:57:20.587Z,10.35
2022-08-22T04:57:50.667Z,10.35
2022-08-22T04:58:20.638Z,10.35
2022-08-22T04:58:51.567Z,10.35
2022-08-22T04:59:22.649Z,10.35
2022-08-22T04:59:53.613Z,10.35
2022-08-22T05:00:29.038Z,10.35
2022-08-22T05:00:55.806Z,10.35
2022-08-22T05:01:26.909Z,10.35
2022-08-22T05:01:58.927Z,10.35
2022-08-22T05:02:31.352Z,10.35
2022-08-22T05:03:00.177Z,10.35
2022-08-22T05:03:41.924Z,10.35
2022-08-22T05:04:02.342Z,10.35
2022-08-22T05:04:40.096Z,10.35
2022-08-22T05:05:04.153Z,10.35
2022-08-22T05:05:35.041Z,10.35
2022-08-22T05:06:05.745Z,10.35
2022-08-22T05:06:51.234Z,10.35
2022-08-22T05:07:09.170Z,10.35
2022-08-22T05:07:39.774Z,10.35
2022-08-22T05:08:27.183Z,10.35
2022-08-22T05:08:40.751Z,10.35
2022-08-22T05:09:15.918Z,10.35
2022-08-22T05:09:42.745Z,10.35
2022-08-22T05:10:13.705Z,10.35
2022-08-22T05:10:45.033Z,10.35
2022-08-22T05:17:41.995Z,10.35
2022-08-22T05:17:45.696Z,10.55
2022-08-22T05:18:16.087Z,10.55
2022-08-22T05:18:31.963Z,10.55
2022-08-22T05:19:04.120Z,10.70
2022-08-22T05:19:32.375Z,10.70
2022-08-22T05:20:14.736Z,10.55
2022-08-22T05:20:45.851Z,10.55
2022-08-22T05:21:08.080Z,10.55
2022-08-22T05:21:39.692Z,10.65
2022-08-22T05:22:06.866Z,10.80
2022-08-22T05:22:38.802Z,10.80
2022-08-22T05:23:17.635Z,10.80
2022-08-22T05:23:40.907Z,10.80
2022-08-22T05:24:16.416Z,10.65
2022-08-22T05:24:54.647Z,10.80
2022-08-22T05:25:12.657Z,10.80
2022-08-22T05:26:30.599Z,10.80
2022-08-22T05:26:47.164Z,10.80
2022-08-22T05:27:16.745Z,10.80
2022-08-22T05:27:47.676Z,10.80
2022-08-22T05:28:20.159Z,10.80
2022-08-22T05:28:55.261Z,10.80
2022-08-22T05:29:23.714Z,10.80
2022-08-22T05:29:51.961Z,10.90
2022-08-22T05:30:23.488Z,10.90
2022-08-22T05:32:22.209Z,10.90
2022-08-22T05:32:26.856Z,10.90
2022-08-22T05:32:58.341Z,11.00
2022-08-22T05:35:57.702Z,11.00
2022-08-22T05:36:04.927Z,11.00
2022-08-22T05:36:35.029Z,11.00
2022-08-22T05:37:07.248Z,11.00
2022-08-22T05:37:49.910Z,11.10
2022-08-22T05:38:07.635Z,11.10
2022-08-22T05:38:40.790Z,11.20
2022-08-22T05:39:11.743Z,11.20
2022-08-22T05:39:41.973Z,11.20
2022-08-22T05:40:12.598Z,11.20
2022-08-22T05:40:42.820Z,11.30
2022-08-22T05:41:14.037Z,11.30
2022-08-22T05:41:44.820Z,11.15
2022-08-22T05:42:15.697Z,11.25
2022-08-22T05:42:46.888Z,11.25
2022-08-22T05:43:35.446Z,11.19
2022-08-22T05:43:50.432Z,11.19
2022-08-22T05:44:21.215Z,11.29
2022-08-22T05:44:52.239Z,11.29
2022-08-22T05:45:22.809Z,11.23
2022-08-22T05:45:53.840Z,11.23
2022-08-22T05:46:27.062Z,11.33
2022-08-22T05:46:58.065Z,11.33
2022-08-22T05:47:26.376Z,11.26
2022-08-22T05:47:57.348Z,11.26
2022-08-22T05:48:28.181Z,11.26
2022-08-22T05:49:01.240Z,11.20
2022-08-22T05:49:32.340Z,11.20
2022-08-22T05:50:03.186Z,11.30
2022-08-22T05:50:33.801Z,11.30
2022-08-22T05:51:03.554Z,11.30
2022-08-22T05:51:34.224Z,11.40
2022-08-22T05:52:04.942Z,11.40
2022-08-22T05:52:37.712Z,11.40
2022-08-22T05:53:24.823Z,11.40
2022-08-22T05:53:37.690Z,11.40
2022-08-22T05:54:12.039Z,11.40
2022-08-22T05:54:41.471Z,11.50
2022-08-22T05:55:11.876Z,11.50
2022-08-22T05:55:42.876Z,11.50
2022-08-22T05:56:13.182Z,11.50
2022-08-22T05:56:43.978Z,11.34
2022-08-22T05:57:16.402Z,11.34
2022-08-22T05:57:46.290Z,11.34
2022-08-22T05:58:18.003Z,11.34
2022-08-22T05:58:49.254Z,11.27
2022-08-22T05:59:19.533Z,11.10
2022-08-22T05:59:51.455Z,11.10
2022-08-22T06:00:24.999Z,11.10
2022-08-22T06:00:52.831Z,11.19
2022-08-22T06:01:23.933Z,11.19
2022-08-22T06:01:54.631Z,11.37
2022-08-22T06:02:25.025Z,11.37
2022-08-22T06:02:56.428Z,11.29
2022-08-22T06:03:27.525Z,11.13
2022-08-22T06:03:58.070Z,10.96
2022-08-22T06:04:33.672Z,11.13
2022-08-22T06:05:02.794Z,11.13
2022-08-22T06:05:31.969Z,10.96
2022-08-22T06:06:02.985Z,11.06
2022-08-22T06:06:33.565Z,11.06
2022-08-22T06:07:04.154Z,11.16
2022-08-22T06:07:34.952Z,11.16
2022-08-22T06:08:09.084Z,11.16
2022-08-22T06:08:53.638Z,11.43
2022-08-22T06:09:08.137Z,11.43
2022-08-22T06:09:42.514Z,11.43
2022-08-22T06:10:59.820Z,11.43
2022-08-22T06:11:25.911Z,11.08
2022-08-22T06:11:51.740Z,11.08
2022-08-22T06:12:20.173Z,11.36
2022-08-22T06:12:44.732Z,11.36
2022-08-22T06:13:16.221Z,11.18
2022-08-22T06:13:47.460Z,11.28
2022-08-22T06:14:18.048Z,11.38
2022-08-22T06:14:54.307Z,11.38
2022-08-22T06:15:21.070Z,11.38
2022-08-22T06:16:24.864Z,11.48
2022-08-22T06:16:53.745Z,11.30
2022-08-22T06:17:23.930Z,11.58
2022-08-22T06:17:55.017Z,11.58
2022-08-22T06:18:28.041Z,11.85
2022-08-22T06:18:57.008Z,11.67
2022-08-22T06:19:27.852Z,11.67
2022-08-22T06:19:59.226Z,11.67
2022-08-22T06:20:33.599Z,11.67
2022-08-22T06:21:01.865Z,11.67
2022-08-22T06:21:38.600Z,11.77
2022-08-22T06:22:20.748Z,11.87
2022-08-22T06:22:34.425Z,11.87
2022-08-22T06:23:10.338Z,11.87
2022-08-22T06:23:36.812Z,11.87
2022-08-22T06:24:07.250Z,12.04
2022-08-22T06:24:37.905Z,11.97
2022-08-22T06:25:09.871Z,12.14
2022-08-22T06:25:40.222Z,12.14
2022-08-22T06:26:21.014Z,11.97
2022-08-22T06:26:46.065Z,11.97
2022-08-22T06:27:13.953Z,11.89
2022-08-22T06:27:44.402Z,11.89
2022-08-22T06:28:15.421Z,11.72
2022-08-22T06:28:46.799Z,11.72
2022-08-22T06:29:17.057Z,11.89
2022-08-22T06:29:49.284Z,11.99
2022-08-22T06:30:20.158Z,11.99
2022-08-22T06:31:07.284Z,12.09
2022-08-22T06:31:22.184Z,12.09
2022-08-22T06:32:09.546Z,11.92
2022-08-22T06:32:47.076Z,11.92
2022-08-22T06:33:27.857Z,12.29
2022-08-22T06:33:59.144Z,11.93
2022-08-22T06:34:27.053Z,11.66
2022-08-22T06:34:57.834Z,11.93
2022-08-22T06:35:28.991Z,11.67
2022-08-22T06:36:00.128Z,11.77
2022-08-22T06:36:31.448Z,11.95
2022-08-22T06:37:03.754Z,11.78
2022-08-22T06:37:33.914Z,11.87
2022-08-22T06:38:07.358Z,12.25
2022-08-22T06:38:37.262Z,12.44
2022-08-22T06:39:09.209Z,12.72
2022-08-22T06:39:36.964Z,12.07
2022-08-22T06:40:09.074Z,12.26
2022-08-22T06:40:38.964Z,12.46
2022-08-22T06:41:10.600Z,12.46
2022-08-22T06:41:58.439Z,12.31
2022-08-22T06:42:16.789Z,12.61
2022-08-22T06:42:43.957Z,12.49
2022-08-22T06:43:15.028Z,12.22
2022-08-22T06:43:45.521Z,12.63
2022-08-22T06:44:16.580Z,13.07
2022-08-22T06:44:47.086Z,13.27
2022-08-22T06:45:18.895Z,13.07
2022-08-22T06:45:49.840Z,13.27
2022-08-22T06:46:20.242Z,13.16
2022-08-22T06:46:51.950Z,12.95
2022-08-22T06:47:23.376Z,12.45
2022-08-22T06:47:58.022Z,12.55
2022-08-22T06:48:27.189Z,12.77
2022-08-22T06:48:55.394Z,12.65
2022-08-22T06:49:26.460Z,12.28
2022-08-22T06:49:57.155Z,12.41
2022-08-22T06:50:45.867Z,13.27
2022-08-22T06:50:59.141Z,12.60
2022-08-22T06:51:30.469Z,13.05
2022-08-22T06:52:01.607Z,12.60
2022-08-22T06:52:35.401Z,12.84
2022-08-22T06:53:04.806Z,13.05
2022-08-22T06:53:34.910Z,12.60
2022-08-22T06:54:06.370Z,13.27
2022-08-22T06:54:36.888Z,12.51
2022-08-22T06:55:10.048Z,12.28
2022-08-22T06:55:38.300Z,12.51
2022-08-22T06:56:09.984Z,12.74
2022-08-22T06:56:40.661Z,12.65
2022-08-22T06:57:12.658Z,12.65
2022-08-22T06:57:44.171Z,12.96
2022-08-22T06:58:14.841Z,12.28
2022-08-22T06:58:45.450Z,11.89
2022-08-22T06:59:16.244Z,12.60
2022-08-22T06:59:46.022Z,12.60
2022-08-22T07:00:18.989Z,12.84
2022-08-22T07:00:53.563Z,12.37
2022-08-22T07:01:19.704Z,12.14